ADDS METAR Data INFO
IDs: Format: Raw Decoded Include TAF

Data at: 0458 UTC 25 May 2018

KGEY 250453Z AUTO VRB04KT 9SM OVC120 19/11 A3000 RMK AO2 SLP127 T01940106 TSNO $
KGEY 250353Z AUTO 30006KT 10SM CLR 21/10 A2999 RMK AO2 SLP127 T02060100 TSNO $
KGEY 250253Z AUTO 26006KT 10SM CLR 21/11 A2997 RMK AO2 SLP121 T02060106 53006 TSNO $
KGEY 250153Z AUTO 28006KT 10SM BKN120 24/08 A2996 RMK AO2 SLP116 T02440083 TSNO $
KGEY 250053Z AUTO 30007KT 10SM FEW100 26/08 A2995 RMK AO2 SLP112 T02610083 TSNO $
KGEY 242353Z AUTO 28010G20KT 10SM CLR 27/06 A2995 RMK AO2 SLP111 T02670061 10272 20222 TSNO $
KGEY 242253Z AUTO 02003KT 10SM BKN085 BKN110 26/10 A2995 RMK AO2 SLP115 T02560100 TSNO $
KGEY 242153Z AUTO 18006KT 10SM BKN075 BKN095 OVC110 25/09 A2996 RMK AO2 SLP115 T02500094 TSNO $
KGEY 242053Z AUTO VRB05KT 10SM CLR 26/09 A2997 RMK AO2 SLP118 T02560094 57006 TSNO
KGEY 241953Z AUTO 23007KT 10SM CLR 24/09 A2998 RMK AO2 SLP123 T02440094 TSNO $
KGEY 241853Z AUTO 16006KT 10SM CLR 24/10 A2999 RMK AO2 SLP125 T02390100 TSNO $
KGEY 241753Z AUTO 18007KT 10SM CLR 23/11 A3000 RMK AO2 SLP129 T02280106 10228 20111 TSNO $
KGEY 241653Z AUTO 13008KT 10SM CLR 21/11 A2999 RMK AO2 SLP132 T02060111 TSNO $
KGEY 241553Z AUTO 18005KT 10SM CLR 18/11 A3000 RMK AO2 SLP135 T01830111 TSNO $
KGEY 241453Z AUTO 14003KT 10SM CLR 16/12 A3001 RMK AO2 SLP140 T01610117 51011 TSNO
KGEY 241353Z AUTO 11004KT 10SM CLR 13/11 A2999 RMK AO2 SLP137 T01330111 TSNO
KGEY 241253Z AUTO 12004KT 10SM CLR 11/11 A2999 RMK AO2 SLP138 T01110106 TSNO
KGEY 241153Z AUTO 00000KT 10SM CLR 12/11 A2997 RMK AO2 SLP130 70002 T01170111 10150 20111 53012 TSNO
KGEY 241053Z AUTO 16003KT 10SM CLR 12/11 A2995 RMK AO2 SLP124 T01220111 TSNO
KGEY 240953Z AUTO 18004KT 10SM FEW090 OVC110 13/11 A2994 RMK AO2 SLP124 T01280111 TSNO
KGEY 240853Z AUTO 16004KT 10SM OVC095 14/12 A2993 RMK AO2 SLP111 T01390117 51004 TSNO
KGEY 240753Z AUTO 13003KT 10SM OVC085 14/12 A2993 RMK AO2 SLP108 T01390117 TSNO
KGEY 240653Z AUTO 00000KT 10SM OVC085 15/12 A2992 RMK AO2 SLP107 T01500117 402110128 TSNO
KGEY 240553Z AUTO 15003KT 10SM OVC080 15/12 A2992 RMK AO2 SLP107 60001 T01500122 10183 20144 51008 TSNO
KGEY 240453Z AUTO 28004KT 10SM OVC085 14/12 A2991 RMK AO2 SLP108 T01440122 TSNO
KGEY 240353Z AUTO 00000KT 10SM OVC080 15/11 A2991 RMK AO2 SLP112 T01500111 TSNO
KGEY 240253Z AUTO 35005KT 10SM FEW033 SCT075 OVC100 16/11 A2989 RMK AO2 RAB02E37 SLP104 P0001 60001 T01560106 53007 TSNO
KGEY 240153Z AUTO 29003KT 10SM FEW060 OVC080 17/11 A2988 RMK AO2 RAB33E42 SLP099 P0000 T01720111 TSNO
KGEY 240053Z AUTO 35004KT 10SM BKN100 OVC110 18/11 A2987 RMK AO2 SLP094 T01780106 TSNO
KGEY 232353Z AUTO 31008KT 10SM CLR 18/12 A2987 RMK AO2 SLP093 60001 T01780117 10211 20144 52002 TSNO
KGEY 232253Z AUTO 31012KT 10SM SCT110 17/12 A2987 RMK AO2 WSHFT 2144 SLP094 T01720122 TSNO
KGEY 232204Z AUTO 35010KT 10SM OVC110 14/13 A2986 RMK AO2 WSHFT 2144 T01440128 TSNO
KGEY 232153Z AUTO 32012KT 10SM FEW050 FEW080 OVC110 15/13 A2986 RMK AO2 PK WND 25027/2128 WSHFT 2130 RAB22E53 SLP095 P0001 T01500128 TSNO
KGEY 232150Z AUTO 32010KT 10SM -RA FEW050 SCT080 OVC100 15/13 A2986 RMK AO2 PK WND 25027/2128 WSHFT 2130 RAB22 P0001 TSNO
KGEY 232053Z AUTO 16005KT 10SM SCT110 20/11 A2985 RMK AO2 SLP083 T02000106 TSNO $
KGEY 231953Z AUTO 19009KT 10SM SCT046 SCT100 21/11 A2985 RMK AO2 SLP083 T02110106 TSNO $
KGEY 231853Z AUTO 15008KT 10SM FEW038 FEW048 19/11 A2988 RMK AO2 SLP094 T01940111 TSNO
KGEY 231753Z AUTO 14009KT 120V180 10SM FEW026 SCT050 BKN100 18/12 A2990 RMK AO2 SLP103 60000 T01780122 10183 20128 58008 TSNO
KGEY 231701Z AUTO 15009KT 10SM FEW020 FEW030 OVC100 16/12 A2991 RMK AO2 T01610122 TSNO